METAR Data
IDs: Format: Raw Decoded Include TAF

Data at: 1201 UTC 16 Feb 2019

PAPB 161153Z AUTO 18023G28KT 10SM FEW030 BKN050 OVC070 02/M01 A2980 RMK AO2 PK WND 21033/1116 SNB17E32 SLP078 P0000 60000 70029 T00221006 10028 20011 TSNO $
PAPB 161053Z AUTO 21020G29KT 10SM FEW035 FEW049 BKN065 03/M02 A2978 RMK AO2 PK WND 20037/1025 SNB14E36 SLP072 P0000 T00281017 TSNO $
PAPB 160853Z AUTO 21021KT 10SM FEW037 BKN050 BKN060 02/M03 A2973 RMK AO2 PK WND 20032/0814 SLP056 60000 T00221028 400500006 53021 TSNO $
PAPB 160753Z AUTO 22021G27KT 10SM FEW032 BKN049 02/M02 A2970 RMK AO2 PK WND 22028/0713 SNB15E25 SLP047 P0000 T00221022 TSNO $
PAPB 160653Z AUTO 21016KT 10SM FEW032 SCT042 BKN055 02/M01 A2969 RMK AO2 PK WND 22035/0625 SNE01B25E36 SLP044 P0000 T00171006 TSNO $
PAPB 160553Z AUTO 22025G31KT 9SM -SN FEW037 02/M01 A2967 RMK AO2 PK WND 21035/0521 SLP035 P0000 60000 T00171011 10028 20006 53014 TSNO $
PAPB 160453Z AUTO 22028G36KT 9SM -SN FEW031 FEW038 BKN047 02/M03 A2964 RMK AO2 PK WND 22036/0448 SNE09B34 SLP026 P0000 T00221028 TSNO $
PAPB 160409Z AUTO 21023G29KT 9SM FEW010 SCT016 SCT050 01/M01 A2964 RMK AO2 PK WND 22030/0355 SNE09 P0000 T00061006 TSNO $
PAPB 160353Z AUTO 22023G37KT 7SM -SN SCT014 BKN025 BKN034 01/M01 A2963 RMK AO2 PK WND 22044/0336 SLP023 P0000 T00061006 TSNO $
PAPB 160350Z AUTO 22028G37KT 7SM -SN SCT012 BKN023 OVC070 01/M01 A2963 RMK AO2 PK WND 22044/0336 P0000 TSNO $
PAPB 160342Z AUTO 22030G44KT 2SM -SN BR SCT014 BKN023 OVC050 01/M01 A2962 RMK AO2 PK WND 22044/0336 P0000 T00061006 TSNO $
PAPB 160334Z AUTO 24027G37KT 1 3/4SM -SN BR FEW018 SCT025 BKN035 01/M01 A2962 RMK AO2 PK WND 21037/0325 P0000 T00061006 TSNO $
PAPB 160253Z AUTO 21027G36KT 9SM -SN FEW038 SCT046 02/M01 A2960 RMK AO2 PK WND 20039/0238 SLP012 P0000 60000 T00221011 53012 TSNO $
PAPB 160211Z AUTO 22019G28KT 6SM -SN BR SCT026 BKN033 OVC060 02/01 A2959 RMK AO2 PK WND 22034/0154 P0000 T00170006 TSNO $
PAPB 160203Z AUTO 22019G30KT 2 1/2SM -SN BR SCT024 BKN035 BKN055 01/M01 A2960 RMK AO2 PK WND 22034/0154 P0000 T00111006 TSNO $
PAPB 160153Z AUTO 23031G38KT 8SM -SN FEW028 SCT035 BKN048 02/M01 A2959 RMK AO2 PK WND 23038/0152 SNE37B53 SLP009 P0000 T00221011 TSNO $
PAPB 160053Z AUTO 22026G35KT 10SM -SN FEW042 SCT100 03/M02 A2957 RMK AO2 PK WND 20042/0009 SNB05E23B51 SLP002 P0000 T00281017 TSNO $
PAPB 152353Z AUTO 22021KT 9SM SCT036 BKN055 BKN070 03/00 A2957 RMK AO2 PK WND 22038/2335 SNB09E49 SLP000 P0000 60000 T00280000 10033 20017 TSNO $
PAPB 152253Z AUTO 22024G31KT 9SM -SN SCT034 BKN042 03/M02 A2954 RMK AO2 PK WND 22035/2216 SLP991 P0000 T00281017 TSNO
PAPB 152153Z AUTO 22028G33KT 8SM -SN SCT034 BKN042 BKN060 02/M01 A2952 RMK AO2 PK WND 21037/2128 SNE05B21 SLP985 P0000 T00221011 TSNO
PAPB 152053Z AUTO 21027G34KT 10SM -SN SCT034 BKN043 OVC050 03/M02 A2949 RMK AO2 PK WND 21036/2010 SLP975 P0000 60000 T00331017 51031 TSNO
PAPB 151953Z AUTO 21027G48KT 6SM -SN BKN041 02/M02 A2947 RMK AO2 PK WND 23048/1945 SLP967 P0000 T00171017 TSNO
PAPB 151853Z AUTO 22025G36KT 9SM -SN SCT037 OVC070 03/M02 A2943 RMK AO2 PK WND 21040/1813 SLP955 P0000 T00281017 TSNO
PAPB 151753Z AUTO 22022G33KT 9SM -SN FEW038 SCT060 03/M02 A2940 RMK AO2 PK WND 21037/1656 SLP944 P0000 60013 T00281022 10050 20028 53022 TSNO
PAPB 151653Z AUTO 22026G34KT 9SM -SN OVC050 03/M01 A2936 RMK AO2 PK WND 22035/1606 SNB1556E11B36 SLP931 P0000 T00331011 TSNO
PAPB 151606Z AUTO 22024G35KT 9SM -SN FEW019 BKN030 OVC039 03/02 A2934 RMK AO2 PK WND 22035/1606 SNB1556 P0000 T00330017 TSNO
PAPB 151553Z AUTO 22026G34KT 10SM SCT010 BKN028 OVC090 03/02 A2933 RMK AO2 PK WND 19043/1454 RAE41UPB21E31 SLP921 P0003 T00330022 TSNO
PAPB 151550Z AUTO 22024G29KT 10SM SCT010 BKN019 OVC090 03/03 A2934 RMK AO2 PK WND 19043/1454 RAE41UPB21E31 P0003 TSNO
PAPB 151500Z AUTO 21029G43KT 7SM -RA BKN010 OVC016 04/03 A2930 RMK AO2 PK WND 19043/1454 P0001 T00390033 TSNO
PAPB 151453Z AUTO 18032G42KT 6SM -RA BR BKN008 OVC014 04/04 A2928 RMK AO2 PK WND 16050/1436 SLP904 P0006 60010 T00440044 56041 TSNO
PAPB 151353Z AUTO 14033G48KT 4SM -RA BR OVC006 04/04 A2930 RMK AO2 PK WND 14049/1256 RAB13SNE13 SLP908 P0003 T00440044 TSNO
PAPB 151329Z AUTO 14033G41KT 3SM -RA BR OVC007 04/04 A2931 RMK AO2 PK WND 14049/1256 RAB13SNE13 P0003 T00390039 TSNO
PAPB 151303Z AUTO 13037G49KT 2 1/2SM -SN BR BKN009 OVC014 03/03 A2933 RMK AO2 PK WND 14049/1256 P0002 T00330033 TSNO
PAPB 151253Z AUTO 14033G47KT 3SM -SN BR OVC012 03/03 A2935 RMK AO2 PK WND 14049/1242 SLP927 P0001 T00330028 TSNO
PAPB 151222Z AUTO 13037G48KT 5SM -SN BR BKN015 OVC021 03/02 A2937 RMK AO2 PK WND 13048/1222 PRESFR P0001 T00330022 TSNO
PAPB 151153Z AUTO 13039G48KT 4SM -SN BR OVC014 03/02 A2940 RMK AO2 PK WND 12050/1134 RAB1057E06SNB06 SLP945 P0016 60016 70019 T00280022 10039 20022 56075 TSNO
PAPB 151133Z AUTO 13040G48KT 5SM -SN BR OVC013 02/02 A2941 RMK AO2 PK WND 13048/1109 RAB1057E06SNB06 PRESFR P0013 T00220017 TSNO
PAPB 151117Z AUTO 13038G48KT 5SM -SN BR FEW012 OVC019 03/02 A2943 RMK AO2 PK WND 13048/1109 RAB1057E06SNB06 PRESFR P0008 T00280017 TSNO
PAPB 151053Z AUTO 13030G40KT 10SM BKN042 OVC075 04/02 A2948 RMK AO2 PK WND 13040/1050 PRESFR SLP969 T00390017 TSNO
PAPB 150953Z AUTO 12026G37KT 10SM BKN090 OVC110 04/01 A2955 RMK AO2 PK WND 12037/0951 SLP993 T00390011 TSNO
PAPB 150853Z AUTO 11022G28KT 10SM CLR 03/02 A2963 RMK AO2 PK WND 12028/0852 PRESFR SLP020 T00330022 400500011 58040 TSNO
PAPB 150810Z AUTO 12017KT 10SM SCT008 03/03 A2968 RMK AO2 PK WND 14026/0755 T00330028 TSNO
PAPB 150753Z AUTO 13020KT 10SM BKN008 03/03 A2969 RMK AO2 PK WND 13026/0739 SLP041 T00330028 TSNO
PAPB 150653Z AUTO 14017KT 9SM FEW006 FEW019 03/03 A2974 RMK AO2 SLP058 T00280028 TSNO
PAPB 150648Z AUTO 14018KT 9SM FEW006 SCT019 03/03 A2974 RMK AO2 TSNO
PAPB 150553Z AUTO 15011KT 10SM FEW008 OVC018 03/03 A2979 RMK AO2 SLP076 T00280028 10050 20028 58015 TSNO
PAPB 150545Z AUTO 16013KT 10SM FEW009 OVC016 03/03 A2980 RMK AO2 T00280028 TSNO
PAPB 150524Z AUTO 16011KT 10SM SCT009 BKN014 OVC032 03/03 A2980 RMK AO2 T00330028 TSNO
PAPB 150514Z AUTO 17013KT 10SM SCT009 BKN020 OVC032 03/03 A2980 RMK AO2 T00330028 TSNO
PAPB 150504Z AUTO 17011KT 10SM SCT018 OVC032 03/03 A2981 RMK AO2 T00330028 TSNO
PAPB 150453Z AUTO 17011KT 10SM FEW009 BKN018 BKN033 03/03 A2982 RMK AO2 SLP085 T00280028 TSNO
PAPB 150443Z AUTO 18011KT 10SM FEW009 BKN013 03/03 A2982 RMK AO2 T00330028 TSNO
PAPB 150418Z AUTO 19010KT 8SM SCT015 03/02 A2983 RMK AO2 T00280017 TSNO
PAPB 150353Z AUTO 20013KT 9SM OVC017 03/02 A2983 RMK AO2 SLP091 T00330022 TSNO
PAPB 150253Z AUTO 20014KT 10SM OVC017 04/03 A2983 RMK AO2 SLP091 T00390028 58012 TSNO
PAPB 150153Z AUTO 20015KT 10SM BKN021 04/03 A2985 RMK AO2 SLP096 T00440028 TSNO
PAPB 150053Z AUTO 20017KT 10SM OVC023 04/03 A2985 RMK AO2 SLP098 T00440028 TSNO
PAPB 150041Z AUTO 20017KT 10SM BKN025 OVC060 04/03 A2986 RMK AO2 T00440028 TSNO